Time;durP1;ratioP1;P1;durP2;ratioP2;P2;SDS_P1;SDS_P2;PMS_P1;PMS_P2;Temp;Humidity;BMP_temperature;BMP_pressure;BME280_temperature;BME280_humidity;BME280_pressure;Samples;Min_cycle;Max_cycle;Signal;HPM_P1;HPM_P2
2021/07/20 00:00:09;;;;;;;2.92;2.53;;;23.00;99.90;;;;;;5026343;28;20284;-78
2021/07/20 00:02:37;;;;;;;3.08;2.78;;;23.00;99.90;;;;;;5026060;28;20303;-79
2021/07/20 00:05:05;;;;;;;3.60;2.70;;;23.10;99.90;;;;;;5019909;28;20261;-77
2021/07/20 00:07:34;;;;;;;3.75;2.88;;;23.10;99.90;;;;;;5020878;28;20345;-77
2021/07/20 00:10:01;;;;;;;3.50;2.55;;;23.00;99.90;;;;;;5021091;28;20319;-77
2021/07/20 00:12:28;;;;;;;3.03;2.70;;;23.00;99.90;;;;;;5021616;28;20686;-77
2021/07/20 00:14:55;;;;;;;4.38;2.88;;;23.00;99.90;;;;;;5021136;28;20231;-78
2021/07/20 00:17:23;;;;;;;4.85;3.22;;;22.90;99.90;;;;;;5022147;28;20285;-79
2021/07/20 00:19:50;;;;;;;3.15;2.83;;;22.90;99.90;;;;;;5023851;28;20224;-77
2021/07/20 00:22:17;;;;;;;2.95;2.65;;;22.80;99.90;;;;;;5024424;28;20228;-78
2021/07/20 00:24:46;;;;;;;3.08;2.70;;;22.80;99.90;;;;;;5018620;28;20270;-78
2021/07/20 00:27:13;;;;;;;2.95;2.58;;;22.80;99.90;;;;;;5023138;28;20223;-78
2021/07/20 00:29:41;;;;;;;3.80;2.90;;;22.80;99.90;;;;;;5030268;28;20223;-78
2021/07/20 00:32:09;;;;;;;3.30;2.50;;;22.70;99.90;;;;;;5021962;28;20220;-78
2021/07/20 00:34:36;;;;;;;2.90;2.60;;;22.60;99.90;;;;;;5024658;28;20220;-78
2021/07/20 00:37:03;;;;;;;4.00;3.10;;;22.60;99.90;;;;;;5020009;28;20267;-78
2021/07/20 00:39:30;;;;;;;3.50;2.67;;;22.50;99.90;;;;;;5032635;28;20725;-78
2021/07/20 00:41:59;;;;;;;3.22;2.75;;;22.50;99.90;;;;;;5020349;28;20290;-77
2021/07/20 00:44:26;;;;;;;4.57;3.00;;;22.60;99.90;;;;;;5020970;28;20228;-78
2021/07/20 00:46:53;;;;;;;4.47;2.60;;;22.50;99.90;;;;;;5023377;28;20308;-78
2021/07/20 00:49:20;;;;;;;3.92;3.35;;;22.60;99.90;;;;;;5015040;28;20278;-77
2021/07/20 00:51:47;;;;;;;3.90;2.88;;;22.60;99.90;;;;;;5020073;28;20229;-78
2021/07/20 00:54:14;;;;;;;3.13;2.83;;;22.60;99.90;;;;;;5015495;28;20215;-78
2021/07/20 00:56:42;;;;;;;3.45;2.80;;;22.50;99.90;;;;;;5021043;28;20292;-77
2021/07/20 00:59:12;;;;;;;3.00;2.65;;;22.50;99.90;;;;;;5025831;28;20224;-77
2021/07/20 01:01:39;;;;;;;2.63;2.42;;;22.50;99.90;;;;;;5019742;28;20227;-77
2021/07/20 01:04:06;;;;;;;3.75;2.90;;;22.50;99.90;;;;;;5019212;28;20228;-78
2021/07/20 01:06:35;;;;;;;3.95;3.13;;;22.50;99.90;;;;;;5026339;28;20248;-78
2021/07/20 01:09:03;;;;;;;4.88;3.15;;;22.50;99.90;;;;;;5016783;28;20602;-77
2021/07/20 01:11:33;;;;;;;3.22;2.85;;;22.50;99.90;;;;;;5033051;28;20310;-79
2021/07/20 01:14:01;;;;;;;3.63;2.95;;;22.40;99.90;;;;;;5015359;28;20578;-77
2021/07/20 01:16:31;;;;;;;3.10;2.80;;;22.40;99.90;;;;;;5021980;28;20216;-78
2021/07/20 01:18:58;;;;;;;3.28;3.00;;;22.40;99.90;;;;;;5018621;28;20294;-77
2021/07/20 01:21:28;;;;;;;3.35;3.05;;;22.50;99.90;;;;;;5020766;28;20231;-78
2021/07/20 01:23:57;;;;;;;3.72;3.03;;;22.50;99.90;;;;;;5016407;28;20220;-78
2021/07/20 01:26:24;;;;;;;3.35;3.05;;;22.40;99.90;;;;;;5017951;28;20319;-77
2021/07/20 01:28:53;;;;;;;3.97;3.00;;;22.40;99.90;;;;;;5017156;28;20303;-77
2021/07/20 01:31:23;;;;;;;6.15;3.10;;;22.40;99.90;;;;;;5027094;28;20220;-79
2021/07/20 01:33:53;;;;;;;3.50;2.97;;;22.40;99.90;;;;;;5014972;28;20255;-78
2021/07/20 01:36:21;;;;;;;3.35;3.05;;;22.40;99.90;;;;;;5016452;28;20277;-77
2021/07/20 01:38:48;;;;;;;3.40;2.83;;;22.30;99.90;;;;;;5017745;28;20220;-77
2021/07/20 01:41:19;;;;;;;3.40;3.03;;;22.30;99.90;;;;;;5018176;28;20228;-77
2021/07/20 01:43:55;;;;;;;3.28;2.65;;;22.30;99.90;;;;;;5014932;28;20272;-78
2021/07/20 01:46:25;;;;;;;3.03;2.72;;;22.30;99.90;;;;;;5014572;28;20234;-77
2021/07/20 01:48:54;;;;;;;3.25;2.95;;;22.20;99.90;;;;;;5023100;28;20218;-77
2021/07/20 01:51:22;;;;;;;5.03;2.95;;;22.20;99.90;;;;;;5015263;28;20223;-77
2021/07/20 01:53:50;;;;;;;4.03;2.90;;;22.20;99.90;;;;;;5020039;28;20846;-77
2021/07/20 01:56:21;;;;;;;3.30;2.83;;;22.10;99.90;;;;;;5021660;28;20228;-78
2021/07/20 01:58:48;;;;;;;3.40;3.10;;;22.10;99.90;;;;;;5026963;28;20262;-77
2021/07/20 02:01:19;;;;;;;4.20;3.15;;;22.10;99.90;;;;;;5026398;28;20224;-78
2021/07/20 02:04:11;;;;;;;4.95;3.08;;;22.10;99.90;;;;;;5013821;28;20220;-78
2021/07/20 02:09:29;;;;;;;2.55;2.30;;;22.00;99.90;;;;;;5018459;28;20309;-77
2021/07/20 02:11:59;;;;;;;3.17;2.85;;;21.90;99.90;;;;;;5021126;28;20246;-78
2021/07/20 02:14:31;;;;;;;4.85;3.00;;;21.90;99.90;;;;;;5016899;28;20223;-77
2021/07/20 02:17:01;;;;;;;3.42;2.72;;;21.90;99.90;;;;;;5030794;28;20223;-77
2021/07/20 02:19:33;;;;;;;3.92;2.72;;;21.80;99.90;;;;;;5027494;28;20713;-80
2021/07/20 02:22:01;;;;;;;4.43;2.80;;;21.80;99.90;;;;;;5022192;28;20311;-78
2021/07/20 02:24:31;;;;;;;3.30;2.97;;;21.80;99.90;;;;;;5017955;28;20651;-77
2021/07/20 02:27:02;;;;;;;2.83;2.53;;;21.80;99.90;;;;;;5019750;28;20240;-77
2021/07/20 02:29:30;;;;;;;3.85;3.10;;;21.70;99.90;;;;;;5028199;28;20234;-78
2021/07/20 02:32:00;;;;;;;3.92;3.05;;;21.70;99.90;;;;;;5028242;28;20281;-77
2021/07/20 02:34:29;;;;;;;4.03;3.03;;;21.70;99.90;;;;;;5018234;28;20698;-77
2021/07/20 02:36:58;;;;;;;4.15;3.00;;;21.80;99.90;;;;;;5023400;28;20227;-78
2021/07/20 02:39:25;;;;;;;3.35;3.05;;;21.80;99.90;;;;;;5025523;28;20224;-78
2021/07/20 02:41:54;;;;;;;3.90;3.08;;;21.80;99.90;;;;;;5019609;28;25360;-78
2021/07/20 02:44:24;;;;;;;3.50;2.80;;;21.70;99.90;;;;;;5024406;28;20277;-78
2021/07/20 02:46:52;;;;;;;5.55;3.05;;;21.60;99.90;;;;;;5022629;28;20725;-78
2021/07/20 02:49:20;;;;;;;3.85;3.03;;;21.60;99.90;;;;;;5023839;28;20220;-77
2021/07/20 02:51:49;;;;;;;4.03;3.10;;;21.50;99.90;;;;;;5024752;28;20227;-79
2021/07/20 02:54:18;;;;;;;3.22;2.83;;;21.50;99.90;;;;;;5022764;28;20224;-77
2021/07/20 02:56:46;;;;;;;3.17;2.88;;;21.50;99.90;;;;;;5018281;28;20737;-77
2021/07/20 02:59:18;;;;;;;3.28;2.97;;;21.50;99.90;;;;;;5018860;28;20220;-77
2021/07/20 03:01:47;;;;;;;4.90;3.30;;;21.40;99.90;;;;;;5021333;28;20227;-77
2021/07/20 03:04:14;;;;;;;3.40;2.58;;;21.50;99.90;;;;;;5020261;28;20228;-76
2021/07/20 03:06:44;;;;;;;3.53;2.78;;;21.50;99.90;;;;;;5026487;28;20272;-77
2021/07/20 03:09:13;;;;;;;3.60;2.78;;;21.50;99.90;;;;;;5018194;28;20259;-77
2021/07/20 03:11:42;;;;;;;3.67;2.92;;;21.50;99.90;;;;;;5016477;28;20231;-78
2021/07/20 03:14:13;;;;;;;4.25;3.33;;;21.40;99.90;;;;;;5019160;28;20220;-77
2021/07/20 03:16:42;;;;;;;4.50;3.33;;;21.50;99.90;;;;;;5023928;28;20302;-78
2021/07/20 03:19:12;;;;;;;3.22;2.92;;;21.50;99.90;;;;;;5023831;28;20294;-77
2021/07/20 03:21:41;;;;;;;3.33;3.03;;;21.50;99.90;;;;;;5026844;28;20230;-77
2021/07/20 03:24:09;;;;;;;3.55;3.05;;;21.40;99.90;;;;;;5021896;28;20582;-78
2021/07/20 03:26:37;;;;;;;4.18;3.00;;;21.40;99.90;;;;;;5018773;28;20253;-78
2021/07/20 03:29:05;;;;;;;4.15;3.10;;;21.30;99.90;;;;;;5012510;28;20240;-77
2021/07/20 03:31:34;;;;;;;4.55;3.45;;;21.30;99.90;;;;;;5012713;28;20698;-78
2021/07/20 03:34:01;;;;;;;3.60;3.30;;;21.30;99.90;;;;;;5017415;28;20230;-77
2021/07/20 03:36:31;;;;;;;3.30;3.00;;;21.20;99.90;;;;;;5023052;28;20651;-78
2021/07/20 03:38:59;;;;;;;3.50;3.20;;;21.20;99.90;;;;;;5018352;28;20224;-77
2021/07/20 03:41:28;;;;;;;3.33;3.03;;;21.20;99.90;;;;;;5015655;28;20250;-78
2021/07/20 03:43:55;;;;;;;3.30;2.95;;;21.20;99.90;;;;;;5020821;28;20598;-77
2021/07/20 03:46:23;;;;;;;3.78;3.28;;;21.20;99.90;;;;;;5016422;28;20216;-77
2021/07/20 03:48:51;;;;;;;3.90;2.70;;;21.20;99.90;;;;;;5016721;28;20228;-78
2021/07/20 03:51:21;;;;;;;3.38;3.08;;;21.20;99.90;;;;;;5016205;28;20231;-77
2021/07/20 03:53:51;;;;;;;3.40;2.92;;;21.20;99.90;;;;;;5022101;28;20228;-78
2021/07/20 03:56:20;;;;;;;3.25;2.95;;;21.20;99.90;;;;;;5017033;28;20293;-78
2021/07/20 03:58:49;;;;;;;4.72;3.40;;;21.20;99.90;;;;;;5019751;28;20233;-78
2021/07/20 04:01:17;;;;;;;4.28;3.83;;;21.10;99.90;;;;;;5024427;28;20729;-78
2021/07/20 04:03:46;;;;;;;3.97;2.90;;;21.10;99.90;;;;;;5013209;28;20224;-79
2021/07/20 04:06:16;;;;;;;3.67;2.88;;;21.10;99.90;;;;;;5017317;28;20219;-77
2021/07/20 04:08:44;;;;;;;4.00;3.30;;;21.00;99.90;;;;;;5016681;28;20363;-79
2021/07/20 04:11:14;;;;;;;4.22;2.92;;;21.00;99.90;;;;;;5018571;28;20303;-77
2021/07/20 04:13:44;;;;;;;5.82;3.20;;;21.10;99.90;;;;;;5024503;28;20306;-78
2021/07/20 04:16:12;;;;;;;3.67;3.03;;;21.00;99.90;;;;;;5026406;28;20287;-78
2021/07/20 04:18:40;;;;;;;3.95;3.33;;;21.00;99.90;;;;;;5026273;28;20219;-78
2021/07/20 04:21:08;;;;;;;3.92;3.45;;;21.10;99.90;;;;;;5022806;28;20770;-78
2021/07/20 04:23:36;;;;;;;3.85;3.30;;;21.10;99.90;;;;;;5025359;28;20507;-77
2021/07/20 04:26:05;;;;;;;3.33;2.78;;;21.20;99.90;;;;;;5023272;28;20752;-77
2021/07/20 04:28:35;;;;;;;5.25;3.08;;;21.20;99.90;;;;;;5030251;28;20222;-78
2021/07/20 04:31:04;;;;;;;5.47;3.33;;;21.30;99.90;;;;;;5025652;28;20748;-79
2021/07/20 04:33:32;;;;;;;3.75;3.40;;;21.40;99.90;;;;;;5022680;28;20230;-78
2021/07/20 04:36:01;;;;;;;3.83;3.42;;;21.40;99.90;;;;;;5024829;28;20265;-77
2021/07/20 04:38:31;;;;;;;3.50;3.15;;;21.50;99.90;;;;;;5025998;28;20937;-77
2021/07/20 04:40:58;;;;;;;4.47;3.60;;;21.50;99.90;;;;;;5026570;28;20223;-77
2021/07/20 04:43:26;;;;;;;6.22;3.47;;;21.60;99.90;;;;;;5021924;28;20699;-77
2021/07/20 04:45:57;;;;;;;4.13;3.72;;;21.60;99.90;;;;;;5025999;28;20293;-78
2021/07/20 04:48:25;;;;;;;4.15;3.75;;;21.50;99.90;;;;;;5025537;28;20234;-77
2021/07/20 04:50:53;;;;;;;3.88;3.08;;;21.60;99.90;;;;;;5019337;28;20610;-78
2021/07/20 04:53:21;;;;;;;3.70;3.28;;;21.70;99.90;;;;;;5021048;28;20254;-78
2021/07/20 04:55:51;;;;;;;4.70;3.63;;;21.70;99.90;;;;;;5015329;28;20779;-77
2021/07/20 04:58:19;;;;;;;4.60;3.35;;;21.60;99.90;;;;;;5024677;28;20219;-77
2021/07/20 05:00:49;;;;;;;3.53;3.22;;;21.50;99.90;;;;;;5013888;28;20249;-78
2021/07/20 05:03:19;;;;;;;4.20;3.28;;;21.40;99.90;;;;;;5024160;28;20235;-78
2021/07/20 05:05:47;;;;;;;3.80;3.28;;;21.40;99.90;;;;;;5021928;28;20224;-78
2021/07/20 05:08:17;;;;;;;4.63;3.17;;;21.50;99.90;;;;;;5020540;28;20903;-77
2021/07/20 05:10:46;;;;;;;3.92;3.15;;;21.50;99.90;;;;;;5019950;28;20220;-79
2021/07/20 05:13:16;;;;;;;4.88;3.20;;;21.40;99.90;;;;;;5015750;28;20269;-78
2021/07/20 05:15:47;;;;;;;3.75;3.25;;;21.40;99.90;;;;;;5019398;28;20242;-77
2021/07/20 05:18:14;;;;;;;4.15;3.08;;;21.40;99.90;;;;;;5021750;28;20305;-78
2021/07/20 05:20:44;;;;;;;3.63;3.33;;;21.40;99.90;;;;;;5023650;28;20215;-78
2021/07/20 05:23:14;;;;;;;3.65;3.35;;;21.40;99.90;;;;;;5020219;28;20284;-78
2021/07/20 05:25:42;;;;;;;4.00;3.20;;;21.30;99.90;;;;;;5020337;28;20219;-78
2021/07/20 05:28:12;;;;;;;3.88;3.40;;;21.30;99.90;;;;;;5029698;28;20230;-77
2021/07/20 05:30:41;;;;;;;3.40;3.00;;;21.30;99.90;;;;;;5038516;28;20241;-79
2021/07/20 05:33:09;;;;;;;3.50;3.22;;;21.40;99.90;;;;;;5025298;28;20236;-77
2021/07/20 05:35:36;;;;;;;4.22;3.30;;;21.40;99.90;;;;;;5028155;28;20219;-77
2021/07/20 05:38:06;;;;;;;4.03;2.95;;;21.30;99.90;;;;;;5022661;28;20936;-77
2021/07/20 05:40:33;;;;;;;3.90;3.45;;;21.40;99.90;;;;;;5015918;28;20224;-78
2021/07/20 05:43:00;;;;;;;3.80;3.33;;;21.70;99.90;;;;;;5020844;28;20730;-77
2021/07/20 05:45:28;;;;;;;4.00;3.60;;;22.10;99.90;;;;;;5020445;28;20787;-77
2021/07/20 05:47:56;;;;;;;4.85;3.42;;;22.30;99.90;;;;;;5028378;28;20231;-78
2021/07/20 05:50:24;;;;;;;4.30;3.55;;;22.40;99.90;;;;;;5019822;28;20587;-77
2021/07/20 05:52:52;;;;;;;4.75;3.60;;;22.40;99.90;;;;;;5028041;28;20219;-77
2021/07/20 05:55:22;;;;;;;4.07;3.63;;;22.40;99.90;;;;;;5027593;28;20706;-78
2021/07/20 05:57:51;;;;;;;5.22;3.92;;;22.40;99.90;;;;;;5021220;28;20293;-77
2021/07/20 06:00:22;;;;;;;6.13;4.13;;;22.40;99.90;;;;;;5018492;28;20222;-78
2021/07/20 06:02:50;;;;;;;4.68;3.55;;;22.40;99.90;;;;;;5011820;28;20595;-79
2021/07/20 06:05:19;;;;;;;5.88;3.50;;;22.60;99.90;;;;;;5025227;28;20215;-77
2021/07/20 06:07:46;;;;;;;4.30;3.90;;;22.70;99.90;;;;;;5010834;28;20223;-77
2021/07/20 06:10:18;;;;;;;5.18;4.15;;;22.80;99.90;;;;;;5020598;28;20729;-77
2021/07/20 06:12:49;;;;;;;5.70;4.32;;;22.80;99.90;;;;;;5012434;28;20232;-77
2021/07/20 06:15:18;;;;;;;4.32;3.58;;;23.00;99.90;;;;;;5017175;28;20220;-77
2021/07/20 06:17:45;;;;;;;6.35;4.15;;;23.00;99.90;;;;;;5018583;28;20243;-78
2021/07/20 06:20:15;;;;;;;5.85;4.10;;;23.00;99.90;;;;;;5008173;28;20341;-77
2021/07/20 06:22:49;;;;;;;5.05;4.10;;;23.10;99.90;;;;;;5015875;28;20215;-77
2021/07/20 06:25:17;;;;;;;4.78;3.50;;;23.30;99.90;;;;;;5024335;28;20309;-78
2021/07/20 06:27:47;;;;;;;4.97;4.43;;;23.60;99.90;;;;;;5027241;28;20302;-78
2021/07/20 06:30:16;;;;;;;4.53;3.90;;;24.00;99.90;;;;;;5025718;28;20224;-78
2021/07/20 06:32:45;;;;;;;4.30;3.90;;;24.20;99.90;;;;;;5024442;28;20762;-77
2021/07/20 06:35:15;;;;;;;5.25;4.55;;;24.30;99.90;;;;;;5028651;28;20243;-77
2021/07/20 06:37:45;;;;;;;7.72;4.57;;;24.30;99.90;;;;;;5029428;28;20709;-77
2021/07/20 06:40:15;;;;;;;4.70;4.25;;;24.20;99.90;;;;;;5017358;28;20223;-77
2021/07/20 06:42:42;;;;;;;5.22;4.28;;;24.10;99.90;;;;;;5041528;28;20219;-77
2021/07/20 06:45:14;;;;;;;8.48;4.97;;;24.10;99.90;;;;;;5026100;28;20287;-77
2021/07/20 06:47:42;;;;;;;5.97;4.93;;;23.90;99.90;;;;;;5024922;28;20226;-79
2021/07/20 06:50:11;;;;;;;6.70;4.72;;;23.80;99.90;;;;;;5022094;28;20246;-77
2021/07/20 06:52:38;;;;;;;4.60;4.20;;;23.90;99.90;;;;;;5028533;28;20245;-77
2021/07/20 06:55:07;;;;;;;6.05;4.88;;;23.80;99.90;;;;;;5027788;28;20713;-77
2021/07/20 06:57:37;;;;;;;7.50;5.05;;;23.90;99.90;;;;;;5022915;28;20223;-77
2021/07/20 07:00:05;;;;;;;6.88;4.60;;;24.00;99.90;;;;;;5021839;28;20227;-78
2021/07/20 07:02:37;;;;;;;8.27;4.55;;;24.10;99.90;;;;;;5029913;28;20223;-78
2021/07/20 07:05:09;;;;;;;5.45;4.38;;;24.10;99.90;;;;;;5004756;28;20279;-78
2021/07/20 07:07:37;;;;;;;7.20;4.60;;;24.20;99.90;;;;;;5021597;28;20218;-78
2021/07/20 07:10:07;;;;;;;6.97;4.50;;;24.40;99.90;;;;;;5025630;28;20235;-78
2021/07/20 07:12:36;;;;;;;4.32;3.88;;;24.40;99.90;;;;;;5018739;28;20229;-78
2021/07/20 07:15:06;;;;;;;5.38;4.88;;;24.50;99.90;;;;;;5030849;28;20238;-78
2021/07/20 07:17:35;;;;;;;5.90;4.13;;;24.70;99.90;;;;;;5025095;28;20223;-76
2021/07/20 07:20:05;;;;;;;5.95;4.35;;;24.80;99.90;;;;;;5025890;28;20285;-76
2021/07/20 07:22:33;;;;;;;5.38;4.15;;;25.00;99.90;;;;;;5032526;28;20229;-78
2021/07/20 07:25:00;;;;;;;4.82;4.07;;;25.10;99.90;;;;;;5027630;28;20227;-76
2021/07/20 07:27:28;;;;;;;7.00;4.80;;;25.30;99.90;;;;;;5029531;28;20235;-76
2021/07/20 07:29:57;;;;;;;7.22;4.85;;;25.20;99.90;;;;;;5029423;28;20227;-77
2021/07/20 07:32:24;;;;;;;9.13;4.80;;;25.10;99.90;;;;;;5030091;28;20236;-77
2021/07/20 07:34:54;;;;;;;5.93;4.53;;;25.20;99.90;;;;;;5026749;28;20216;-76
2021/07/20 07:37:25;;;;;;;5.47;4.82;;;25.30;99.90;;;;;;5031316;28;20215;-77
2021/07/20 07:39:55;;;;;;;4.70;4.30;;;25.40;99.90;;;;;;5030371;28;20306;-76
2021/07/20 07:42:23;;;;;;;6.72;4.50;;;25.40;99.90;;;;;;5037667;28;20222;-77
2021/07/20 07:44:52;;;;;;;8.75;5.03;;;25.60;99.90;;;;;;5033855;28;20218;-78
2021/07/20 07:47:19;;;;;;;8.82;5.40;;;25.60;99.90;;;;;;5026898;28;20222;-77
2021/07/20 07:49:47;;;;;;;8.88;5.13;;;25.70;99.90;;;;;;5025984;28;20230;-78
2021/07/20 07:52:16;;;;;;;8.60;4.72;;;25.70;99.90;;;;;;5031171;28;20282;-78
2021/07/20 07:54:46;;;;;;;8.38;5.47;;;25.80;99.90;;;;;;5037605;28;20219;-79
2021/07/20 07:57:14;;;;;;;8.20;5.28;;;25.70;99.90;;;;;;5030875;28;20644;-77
2021/07/20 07:59:42;;;;;;;6.38;5.28;;;25.70;99.90;;;;;;5027244;28;20219;-77
2021/07/20 08:02:14;;;;;;;6.97;5.00;;;25.80;99.90;;;;;;5025495;28;20227;-77
2021/07/20 08:04:43;;;;;;;5.43;4.90;;;25.90;99.90;;;;;;5027690;28;20598;-79
2021/07/20 08:07:11;;;;;;;5.85;4.55;;;26.00;99.90;;;;;;5039749;28;20223;-77
2021/07/20 08:09:41;;;;;;;6.30;5.20;;;26.30;99.90;;;;;;5029938;28;20229;-77
2021/07/20 08:12:10;;;;;;;7.53;4.97;;;26.40;99.90;;;;;;5023046;28;20254;-78
2021/07/20 08:14:38;;;;;;;5.35;4.75;;;26.40;99.90;;;;;;5031301;28;20218;-78
2021/07/20 08:17:07;;;;;;;7.18;4.72;;;26.40;99.90;;;;;;5025654;28;20286;-77
2021/07/20 08:19:37;;;;;;;5.45;4.68;;;26.60;99.90;;;;;;5030433;28;20219;-78
2021/07/20 08:22:08;;;;;;;6.95;5.18;;;26.60;99.90;;;;;;5030234;28;20230;-78
2021/07/20 08:24:40;;;;;;;6.35;4.25;;;26.60;99.90;;;;;;5030741;28;20660;-78
2021/07/20 08:27:14;;;;;;;6.28;4.75;;;26.60;99.90;;;;;;5032906;28;20231;-77
2021/07/20 08:29:44;;;;;;;7.68;5.40;;;26.60;99.90;;;;;;5029530;28;20223;-78
2021/07/20 08:32:13;;;;;;;5.45;4.38;;;26.70;99.90;;;;;;5028597;28;20227;-77
2021/07/20 08:34:45;;;;;;;7.15;5.40;;;26.60;99.90;;;;;;5034728;28;20227;-78
2021/07/20 08:37:13;;;;;;;5.40;4.53;;;26.70;99.90;;;;;;5021934;28;20842;-78
2021/07/20 08:39:43;;;;;;;6.15;5.30;;;26.80;99.90;;;;;;5024388;28;20215;-77
2021/07/20 08:42:24;;;;;;;7.47;4.97;;;26.90;99.90;;;;;;5034473;28;20802;-78
2021/07/20 08:45:05;;;;;;;5.45;4.88;;;26.90;99.90;;;;;;5029465;28;20219;-78
2021/07/20 08:48:08;;;;;;;6.28;5.20;;;26.90;99.90;;;;;;5026810;28;20723;-78
2021/07/20 08:50:40;;;;;;;6.05;5.45;;;26.90;99.90;;;;;;4984566;28;21041;-79
2021/07/20 08:53:19;;;;;;;5.32;4.75;;;27.00;99.90;;;;;;5024138;28;20239;-79
2021/07/20 08:55:51;;;;;;;5.70;4.78;;;27.10;99.90;;;;;;5030320;28;20216;-79
2021/07/20 08:58:23;;;;;;;6.70;5.15;;;27.40;99.90;;;;;;5018167;28;20597;-78
2021/07/20 09:00:54;;;;;;;5.82;5.00;;;27.60;99.90;;;;;;5033149;28;20220;-78
2021/07/20 09:03:42;;;;;;;5.80;4.88;;;27.70;99.90;;;;;;5032736;28;20648;-77
2021/07/20 09:06:13;;;;;;;7.85;5.30;;;27.60;99.90;;;;;;5024240;28;20237;-77
2021/07/20 09:08:44;;;;;;;8.07;5.25;;;27.50;99.90;;;;;;5032541;28;20297;-77
2021/07/20 09:11:18;;;;;;;5.88;5.00;;;27.60;99.90;;;;;;5025885;28;20247;-78
2021/07/20 09:13:52;;;;;;;6.88;4.60;;;27.80;99.90;;;;;;5027612;28;20219;-78
2021/07/20 09:16:30;;;;;;;5.90;4.95;;;27.90;99.90;;;;;;5028750;28;20269;-79
2021/07/20 09:19:05;;;;;;;5.85;5.20;;;28.00;99.90;;;;;;5027543;28;20235;-77
2021/07/20 09:21:39;;;;;;;8.15;5.50;;;28.10;99.90;;;;;;5025149;28;20253;-78
2021/07/20 09:24:11;;;;;;;7.43;5.82;;;28.10;99.90;;;;;;5023040;28;20302;-78
2021/07/20 09:26:43;;;;;;;6.43;5.00;;;28.20;99.90;;;;;;5025675;28;20633;-78
2021/07/20 09:29:16;;;;;;;6.18;5.15;;;28.20;99.90;;;;;;5022862;28;20271;-78
2021/07/20 09:32:05;;;;;;;6.03;5.13;;;28.40;99.90;;;;;;5027184;28;20245;-77
2021/07/20 09:34:51;;;;;;;6.55;4.80;;;28.50;99.90;;;;;;5034478;28;20280;-78
2021/07/20 09:37:23;;;;;;;5.70;5.00;;;28.70;99.90;;;;;;5033739;28;20219;-78
2021/07/20 09:40:00;;;;;;;7.30;5.38;;;28.80;99.90;;;;;;5023818;28;20701;-77
2021/07/20 09:42:43;;;;;;;5.85;5.28;;;28.80;99.90;;;;;;5028704;28;20306;-78
2021/07/20 09:45:13;;;;;;;7.45;5.38;;;28.90;99.90;;;;;;5032571;28;20613;-77
2021/07/20 09:47:54;;;;;;;6.57;5.25;;;28.80;99.90;;;;;;5041837;28;20222;-77
2021/07/20 09:50:23;;;;;;;9.93;5.55;;;28.80;99.90;;;;;;5028519;28;20226;-78
2021/07/20 09:53:23;;;;;;;5.97;4.72;;;28.90;99.90;;;;;;5028602;28;20227;-78
2021/07/20 09:56:16;;;;;;;6.43;5.20;;;29.10;99.90;;;;;;5027501;28;20246;-78
2021/07/20 09:58:54;;;;;;;7.22;5.22;;;29.10;99.90;;;;;;4986535;28;20251;-78
2021/07/20 10:01:28;;;;;;;7.20;5.68;;;29.20;99.90;;;;;;5019508;28;20230;-77
2021/07/20 10:04:02;;;;;;;8.10;5.65;;;29.10;99.90;;;;;;5024177;28;20226;-78
2021/07/20 10:06:36;;;;;;;6.38;5.00;;;29.20;99.90;;;;;;5021681;28;20231;-78
2021/07/20 10:09:06;;;;;;;6.28;5.03;;;29.30;99.90;;;;;;5022279;28;20302;-78
2021/07/20 10:11:44;;;;;;;7.15;5.00;;;29.30;99.90;;;;;;5023334;28;20279;-79
2021/07/20 10:14:30;;;;;;;7.65;4.68;;;29.30;99.90;;;;;;5027419;28;20624;-77
2021/07/20 10:17:08;;;;;;;5.78;4.93;;;29.40;99.90;;;;;;5027643;28;20309;-78
2021/07/20 10:19:40;;;;;;;10.68;5.70;;;29.40;99.90;;;;;;5027062;28;20566;-78
2021/07/20 10:22:15;;;;;;;8.00;5.25;;;29.30;99.90;;;;;;5015975;28;20223;-77
2021/07/20 10:24:48;;;;;;;6.53;4.95;;;29.30;99.90;;;;;;5014916;28;20226;-77
2021/07/20 10:27:25;;;;;;;5.53;4.70;;;29.40;99.90;;;;;;5017138;28;20702;-78
2021/07/20 10:30:02;;;;;;;6.00;5.30;;;29.50;99.90;;;;;;5021609;28;20310;-79
2021/07/20 10:32:38;;;;;;;6.63;5.25;;;29.60;99.90;;;;;;5016640;28;20851;-78
2021/07/20 10:35:11;;;;;;;6.57;5.00;;;29.80;99.90;;;;;;5023959;28;20231;-78
2021/07/20 10:37:42;;;;;;;6.75;5.35;;;30.00;99.90;;;;;;5026492;28;20268;-78
2021/07/20 10:40:14;;;;;;;6.30;4.95;;;30.20;99.90;;;;;;5024251;28;20224;-78
2021/07/20 10:42:48;;;;;;;5.72;5.00;;;30.20;99.90;;;;;;5023114;28;20234;-78
2021/07/20 10:45:18;;;;;;;5.45;4.80;;;30.20;99.90;;;;;;5020183;28;20227;-79
2021/07/20 10:47:48;;;;;;;6.50;5.15;;;30.20;99.90;;;;;;5017414;28;20253;-78
2021/07/20 10:50:23;;;;;;;6.22;4.90;;;30.20;99.90;;;;;;5026783;28;20273;-79
2021/07/20 10:53:04;;;;;;;5.55;4.68;;;30.20;99.90;;;;;;5027149;28;20227;-78
2021/07/20 10:55:42;;;;;;;4.75;4.25;;;30.30;99.90;;;;;;5028560;28;20218;-78
2021/07/20 10:58:21;;;;;;;5.55;4.60;;;30.40;99.90;;;;;;5022452;28;20216;-78
2021/07/20 11:00:58;;;;;;;5.28;4.70;;;30.40;99.90;;;;;;5030249;28;20215;-78
2021/07/20 11:03:35;;;;;;;5.70;4.40;;;30.50;99.90;;;;;;5019094;28;20216;-78
2021/07/20 11:06:03;;;;;;;4.68;4.22;;;30.60;99.90;;;;;;5018924;28;20736;-79
2021/07/20 11:08:35;;;;;;;7.63;4.40;;;30.70;99.90;;;;;;5024882;28;20222;-78
2021/07/20 11:11:04;;;;;;;6.45;4.47;;;30.80;99.90;;;;;;5024918;28;20227;-78
2021/07/20 11:13:34;;;;;;;4.65;4.15;;;30.70;99.90;;;;;;5027136;28;20215;-77
2021/07/20 11:16:06;;;;;;;6.50;4.50;;;30.80;99.90;;;;;;5021544;28;20219;-79
2021/07/20 11:18:36;;;;;;;4.45;3.97;;;30.70;99.90;;;;;;5025789;28;20272;-79
2021/07/20 11:21:04;;;;;;;8.02;4.10;;;30.80;99.90;;;;;;5025740;28;20277;-78
2021/07/20 11:23:37;;;;;;;4.68;3.88;;;30.90;99.90;;;;;;5029623;28;20284;-78
2021/07/20 11:26:05;;;;;;;5.28;4.78;;;31.00;99.90;;;;;;5019478;28;20273;-77
2021/07/20 11:28:32;;;;;;;5.40;4.28;;;31.00;99.90;;;;;;5019812;28;20228;-79
2021/07/20 11:31:07;;;;;;;6.20;3.97;;;31.00;99.90;;;;;;5016944;28;20235;-78
2021/07/20 11:33:40;;;;;;;7.57;4.82;;;31.00;99.90;;;;;;5018214;28;20293;-77
2021/07/20 11:36:09;;;;;;;6.03;4.10;;;30.90;99.90;;;;;;5017660;28;20285;-77
2021/07/20 11:38:38;;;;;;;4.50;3.95;;;31.00;99.90;;;;;;5019839;28;20215;-77
2021/07/20 11:41:13;;;;;;;6.72;4.40;;;31.20;99.90;;;;;;5015567;28;20224;-77
2021/07/20 11:44:00;;;;;;;5.68;4.22;;;31.40;99.90;;;;;;5015615;28;20635;-77
2021/07/20 11:46:36;;;;;;;4.57;4.00;;;31.30;99.90;;;;;;5015186;28;20219;-77
2021/07/20 11:49:09;;;;;;;5.97;4.40;;;31.40;99.90;;;;;;5018755;28;20226;-77
2021/07/20 11:51:49;;;;;;;7.60;4.20;;;31.40;99.90;;;;;;5017894;28;20709;-77
2021/07/20 11:54:28;;;;;;;4.78;3.88;;;31.40;99.90;;;;;;5021236;28;20272;-78
2021/07/20 11:57:13;;;;;;;6.72;3.97;;;31.40;99.90;;;;;;5012827;28;20219;-77
2021/07/20 12:00:14;;;;;;;6.35;4.45;;;31.40;99.90;;;;;;5014383;28;20678;-79
2021/07/20 12:03:17;;;;;;;5.13;4.63;;;31.60;99.90;;;;;;5016527;28;20231;-77
2021/07/20 12:06:13;;;;;;;6.70;4.32;;;31.70;99.90;;;;;;5015542;28;20219;-77
2021/07/20 12:08:53;;;;;;;8.18;5.03;;;31.60;99.90;;;;;;5021243;28;20639;-77
2021/07/20 12:11:23;;;;;;;6.50;4.10;;;31.60;99.90;;;;;;5018872;28;20235;-77
2021/07/20 12:13:50;;;;;;;4.18;3.67;;;31.60;99.90;;;;;;5020608;28;20226;-77
2021/07/20 12:16:18;;;;;;;4.30;3.33;;;31.80;99.90;;;;;;5017484;28;20904;-77
2021/07/20 12:18:49;;;;;;;8.32;4.15;;;32.20;99.90;;;;;;5018289;28;20227;-78
2021/07/20 12:21:20;;;;;;;6.43;3.88;;;32.30;99.90;;;;;;5018698;28;20258;-77
2021/07/20 12:23:54;;;;;;;4.40;3.53;;;32.40;99.90;;;;;;5014755;28;20232;-78
2021/07/20 12:26:22;;;;;;;9.35;4.47;;;32.70;99.90;;;;;;5018427;28;20224;-78
2021/07/20 12:28:50;;;;;;;7.15;4.22;;;32.60;99.90;;;;;;5013910;28;20223;-78
2021/07/20 12:31:19;;;;;;;6.60;4.43;;;32.40;99.90;;;;;;5012952;28;20311;-79
2021/07/20 12:33:47;;;;;;;7.53;4.45;;;32.10;99.90;;;;;;5022582;28;20228;-77
2021/07/20 12:36:15;;;;;;;5.35;4.28;;;32.00;99.90;;;;;;5020802;28;20215;-78
2021/07/20 12:38:44;;;;;;;5.88;4.18;;;32.10;99.90;;;;;;5019825;28;20227;-77
2021/07/20 12:41:15;;;;;;;5.72;4.15;;;32.00;99.90;;;;;;5019100;28;20223;-78
2021/07/20 12:43:44;;;;;;;7.40;4.47;;;31.90;99.90;;;;;;5019727;28;20244;-79
2021/07/20 12:46:14;;;;;;;6.25;3.78;;;31.90;99.90;;;;;;5017278;28;20230;-78
2021/07/20 12:48:49;;;;;;;8.52;4.65;;;32.00;99.90;;;;;;5013166;28;20220;-78
2021/07/20 12:51:19;;;;;;;7.45;4.30;;;31.80;99.90;;;;;;5018787;28;20327;-77
2021/07/20 12:53:50;;;;;;;5.65;4.22;;;31.70;99.90;;;;;;5016327;28;20234;-78
2021/07/20 12:56:21;;;;;;;6.65;4.63;;;31.70;99.90;;;;;;5017738;28;20726;-75
2021/07/20 12:58:50;;;;;;;9.88;4.72;;;31.80;99.90;;;;;;5016917;28;20236;-77
2021/07/20 13:01:18;;;;;;;7.20;4.20;;;32.00;99.90;;;;;;5018324;28;20228;-77
2021/07/20 13:03:46;;;;;;;5.97;3.97;;;32.10;99.90;;;;;;5016362;28;20223;-76
2021/07/20 13:06:16;;;;;;;6.97;4.15;;;32.10;99.90;;;;;;5018713;28;20302;-76
2021/07/20 13:08:44;;;;;;;5.75;4.47;;;32.00;99.90;;;;;;5018085;28;20270;-77